createdAt,value
2022-08-21T00:02:25.530Z,18.10
2022-08-21T00:06:28.742Z,18.10
2022-08-21T00:10:34.508Z,18.00
2022-08-21T00:14:37.831Z,17.90
2022-08-21T00:18:42.250Z,18.00
2022-08-21T00:22:46.171Z,18.00
2022-08-21T00:26:50.889Z,18.00
2022-08-21T00:30:54.105Z,18.00
2022-08-21T00:34:58.513Z,18.00
2022-08-21T00:39:02.051Z,18.00
2022-08-21T00:43:09.661Z,18.00
2022-08-21T00:47:13.703Z,18.00
2022-08-21T00:51:26.454Z,18.00
2022-08-21T00:55:31.425Z,18.00
2022-08-21T00:59:39.817Z,18.00
2022-08-21T01:03:44.153Z,17.90
2022-08-21T01:07:48.847Z,18.00
2022-08-21T01:11:52.588Z,18.20
2022-08-21T01:16:01.579Z,18.30
2022-08-21T01:20:09.116Z,18.40
2022-08-21T01:24:14.197Z,18.50
2022-08-21T01:28:17.570Z,18.80
2022-08-21T01:32:21.745Z,18.90
2022-08-21T01:36:25.655Z,18.90
2022-08-21T01:40:30.866Z,19.10
2022-08-21T01:44:34.168Z,18.90
2022-08-21T01:48:39.416Z,18.90
2022-08-21T01:52:43.314Z,18.80
2022-08-21T01:56:52.153Z,18.80
2022-08-21T02:00:55.637Z,18.70
2022-08-21T02:04:58.860Z,18.60
2022-08-21T02:09:02.203Z,18.60
2022-08-21T02:13:08.321Z,18.70
2022-08-21T02:17:16.537Z,18.70
2022-08-21T02:21:20.128Z,18.60
2022-08-21T02:25:24.897Z,18.50
2022-08-21T02:29:29.607Z,18.30
2022-08-21T02:33:33.040Z,18.30
2022-08-21T02:37:36.247Z,18.30
2022-08-21T02:41:45.681Z,18.30
2022-08-21T02:45:51.174Z,18.20
2022-08-21T02:49:54.865Z,18.20
2022-08-21T02:53:58.083Z,18.10
2022-08-21T02:58:03.062Z,18.10
2022-08-21T03:02:07.874Z,18.10
2022-08-21T03:06:14.125Z,18.00
2022-08-21T03:10:18.792Z,17.90
2022-08-21T03:14:22.170Z,17.90
2022-08-21T03:18:26.781Z,17.70
2022-08-21T03:22:30.730Z,17.70
2022-08-21T03:26:34.471Z,17.70
2022-08-21T03:30:38.082Z,17.60
2022-08-21T03:34:43.178Z,17.60
2022-08-21T03:38:46.547Z,17.40
2022-08-21T03:42:50.408Z,17.30
2022-08-21T03:46:53.640Z,17.00
2022-08-21T03:50:58.248Z,16.80
2022-08-21T03:55:01.535Z,16.60
2022-08-21T03:59:05.563Z,16.40
2022-08-21T04:03:09.966Z,16.30
2022-08-21T04:07:16.534Z,16.20
2022-08-21T04:11:20.967Z,16.00
2022-08-21T04:15:25.741Z,15.90
2022-08-21T04:19:31.009Z,15.80
2022-08-21T04:23:35.658Z,15.90
2022-08-21T04:27:39.418Z,15.90
2022-08-21T04:31:44.679Z,16.00
2022-08-21T04:35:48.858Z,16.20
2022-08-21T04:39:54.459Z,16.30
2022-08-21T04:43:57.890Z,16.40
2022-08-21T04:48:05.017Z,16.50
2022-08-21T04:52:08.226Z,16.60
2022-08-21T04:56:16.440Z,16.80
2022-08-21T05:00:20.338Z,16.90
2022-08-21T05:04:27.687Z,17.10
2022-08-21T05:08:31.194Z,17.10
2022-08-21T05:12:37.094Z,17.30
2022-08-21T05:16:41.678Z,17.50
2022-08-21T05:20:45.750Z,17.80
2022-08-21T05:24:49.301Z,18.10
2022-08-21T05:28:54.130Z,18.40
2022-08-21T05:33:00.426Z,18.80
2022-08-21T05:37:07.539Z,19.20
2022-08-21T05:41:15.197Z,19.50
2022-08-21T05:45:42.254Z,19.90
2022-08-21T05:49:43.328Z,20.20
2022-08-21T05:53:46.910Z,20.50
2022-08-21T05:57:50.258Z,20.60
2022-08-21T06:01:55.727Z,20.80
2022-08-21T06:05:59.035Z,21.00
2022-08-21T06:10:02.543Z,21.10
2022-08-21T06:14:07.448Z,21.20
2022-08-21T06:18:12.688Z,21.00
2022-08-21T06:22:15.935Z,21.20
2022-08-21T06:26:19.408Z,21.20
2022-08-21T06:30:23.127Z,21.00
2022-08-21T06:34:28.194Z,21.20
2022-08-21T06:38:31.364Z,21.50
2022-08-21T06:42:41.391Z,21.60
2022-08-21T06:46:47.581Z,21.70
2022-08-21T06:50:54.197Z,21.90
2022-08-21T06:54:57.373Z,21.90
2022-08-21T06:59:00.580Z,21.80
2022-08-21T07:03:03.972Z,21.40
2022-08-21T07:07:09.595Z,21.00
2022-08-21T07:11:17.151Z,20.90
2022-08-21T07:15:20.668Z,21.00
2022-08-21T07:19:24.483Z,20.80
2022-08-21T07:23:32.889Z,21.00
2022-08-21T07:27:36.128Z,21.00
2022-08-21T07:31:43.477Z,21.10
2022-08-21T07:35:46.839Z,21.00
2022-08-21T07:39:52.230Z,21.20
2022-08-21T07:43:55.514Z,21.20
2022-08-21T07:47:58.753Z,21.20
2022-08-21T07:52:02.261Z,21.30
2022-08-21T07:56:09.215Z,21.10
2022-08-21T08:00:16.320Z,21.20
2022-08-21T08:04:22.232Z,21.40
2022-08-21T08:08:29.260Z,21.60
2022-08-21T08:12:33.955Z,22.20
2022-08-21T08:16:37.116Z,22.70
2022-08-21T08:20:40.459Z,23.00
2022-08-21T08:24:43.768Z,23.10
2022-08-21T08:28:48.897Z,23.20
2022-08-21T08:32:52.560Z,23.10
2022-08-21T08:36:55.949Z,22.70
2022-08-21T08:41:07.619Z,22.60
2022-08-21T08:45:17.583Z,22.80
2022-08-21T08:49:25.346Z,23.00
2022-08-21T08:53:34.292Z,22.90
2022-08-21T08:57:39.425Z,22.70
2022-08-21T09:01:44.822Z,22.70
2022-08-21T09:05:52.052Z,22.60
2022-08-21T09:10:07.261Z,22.60
2022-08-21T09:14:19.177Z,22.90
2022-08-21T09:18:35.347Z,23.10
2022-08-21T09:22:45.172Z,23.30
2022-08-21T09:26:55.501Z,23.40
2022-08-21T09:31:03.597Z,23.90
2022-08-21T09:35:11.614Z,23.80
2022-08-21T09:39:24.158Z,23.50
2022-08-21T09:43:27.426Z,23.40
2022-08-21T09:47:31.409Z,23.20
2022-08-21T09:51:38.851Z,23.10
2022-08-21T09:56:09.641Z,23.50
2022-08-21T10:00:21.155Z,23.80
2022-08-21T10:04:29.107Z,24.30
2022-08-21T10:08:36.107Z,25.00
2022-08-21T10:12:49.092Z,25.50
2022-08-21T10:17:04.804Z,26.00
2022-08-21T10:21:16.801Z,26.50
2022-08-21T10:25:28.468Z,26.90
2022-08-21T10:29:45.913Z,27.70
2022-08-21T10:33:56.144Z,27.60
2022-08-21T10:38:48.742Z,26.70
2022-08-21T10:43:04.148Z,26.10
2022-08-21T10:47:12.079Z,25.90
2022-08-21T10:51:29.183Z,25.60
2022-08-21T10:55:37.496Z,25.70
2022-08-21T10:59:47.945Z,25.80
2022-08-21T11:03:56.167Z,25.80
2022-08-21T11:08:08.238Z,25.80
2022-08-21T11:12:25.725Z,26.40
2022-08-21T11:16:40.216Z,26.80
2022-08-21T11:20:51.058Z,26.80
2022-08-21T11:25:01.820Z,26.90
2022-08-21T11:29:12.983Z,26.70
2022-08-21T11:33:32.050Z,26.40
2022-08-21T11:37:48.712Z,26.50
2022-08-21T11:42:04.697Z,25.90
2022-08-21T11:46:20.495Z,25.90
2022-08-21T11:50:34.576Z,25.70
2022-08-21T11:54:44.497Z,25.50
2022-08-21T11:58:53.361Z,25.60
2022-08-21T12:03:08.754Z,26.20
2022-08-21T12:07:19.377Z,26.70
2022-08-21T12:11:29.761Z,27.10
2022-08-21T12:15:34.500Z,27.30
2022-08-21T12:19:37.933Z,27.20
2022-08-21T12:23:51.328Z,26.90
2022-08-21T12:28:05.255Z,26.30
2022-08-21T12:32:27.591Z,25.70
2022-08-21T12:36:44.918Z,25.20
2022-08-21T12:40:56.842Z,24.80
2022-08-21T12:45:04.816Z,24.80
2022-08-21T12:49:15.812Z,24.90
2022-08-21T12:53:31.369Z,25.00
2022-08-21T12:57:39.661Z,25.30
2022-08-21T13:01:51.463Z,24.90
2022-08-21T13:05:55.432Z,24.80
2022-08-21T13:10:01.050Z,24.90
2022-08-21T13:14:06.622Z,25.10
2022-08-21T13:18:21.710Z,25.00
2022-08-21T13:22:34.561Z,25.00
2022-08-21T13:26:38.856Z,24.70
2022-08-21T13:30:45.759Z,24.20
2022-08-21T13:34:49.199Z,23.80
2022-08-21T13:38:57.657Z,23.60
2022-08-21T13:43:02.876Z,23.60
2022-08-21T13:47:08.426Z,23.80
2022-08-21T13:51:12.523Z,23.80
2022-08-21T13:55:18.410Z,23.80
2022-08-21T13:59:32.768Z,23.60
2022-08-21T14:03:45.732Z,23.80
2022-08-21T14:07:49.706Z,23.60
2022-08-21T14:11:53.547Z,23.90
2022-08-21T14:15:59.319Z,24.00
2022-08-21T14:20:05.516Z,24.30
2022-08-21T14:24:12.463Z,24.50
2022-08-21T14:28:27.077Z,24.90
2022-08-21T14:32:38.707Z,25.30
2022-08-21T14:36:50.661Z,24.90
2022-08-21T14:40:56.414Z,24.60
2022-08-21T14:45:07.437Z,24.40
2022-08-21T14:49:10.632Z,24.50
2022-08-21T14:53:15.428Z,25.10
2022-08-21T14:57:18.780Z,25.20
2022-08-21T15:01:24.275Z,24.70
2022-08-21T15:05:32.985Z,24.40
2022-08-21T15:09:38.788Z,24.10
2022-08-21T15:13:42.465Z,23.80
2022-08-21T15:17:48.296Z,24.00
2022-08-21T15:21:52.185Z,24.00
2022-08-21T15:25:59.800Z,24.20
2022-08-21T15:30:04.352Z,24.20
2022-08-21T15:34:07.579Z,24.50
2022-08-21T15:38:11.509Z,24.10
2022-08-21T15:42:16.161Z,24.10
2022-08-21T15:46:21.550Z,23.60
2022-08-21T15:50:25.998Z,23.70
2022-08-21T15:54:29.331Z,23.70
2022-08-21T15:58:33.967Z,23.50
2022-08-21T16:02:38.150Z,23.20
2022-08-21T16:06:55.683Z,23.10
2022-08-21T16:11:03.019Z,23.30
2022-08-21T16:15:10.935Z,23.30
2022-08-21T16:19:24.175Z,23.10
2022-08-21T16:23:27.401Z,23.10
2022-08-21T16:27:30.829Z,23.00
2022-08-21T16:31:39.281Z,22.90
2022-08-21T16:35:42.449Z,22.80
2022-08-21T16:39:45.878Z,22.70
2022-08-21T16:43:51.184Z,22.60
2022-08-21T16:47:55.771Z,22.60
2022-08-21T16:51:59.006Z,22.40
2022-08-21T16:56:02.655Z,22.40
2022-08-21T17:00:10.558Z,22.40
2022-08-21T17:04:15.268Z,22.30
2022-08-21T17:08:19.564Z,22.30
2022-08-21T17:12:23.459Z,22.20
2022-08-21T17:16:28.240Z,22.20
2022-08-21T17:20:33.414Z,22.30
2022-08-21T17:24:37.370Z,22.10
2022-08-21T17:28:41.122Z,22.10
2022-08-21T17:32:45.892Z,22.00
2022-08-21T17:36:50.473Z,21.90
2022-08-21T17:40:54.272Z,21.80
2022-08-21T17:44:57.761Z,21.70
2022-08-21T17:49:02.992Z,21.60
2022-08-21T17:53:29.168Z,21.50
2022-08-21T17:57:43.101Z,21.40
2022-08-21T18:01:52.202Z,21.40
2022-08-21T18:05:59.447Z,21.40
2022-08-21T18:10:17.738Z,21.40
2022-08-21T18:14:47.768Z,21.30
2022-08-21T18:18:58.548Z,21.30
2022-08-21T18:23:03.019Z,21.30
2022-08-21T18:27:10.046Z,21.20
2022-08-21T18:31:16.330Z,21.10
2022-08-21T18:35:21.051Z,21.00
2022-08-21T18:39:36.306Z,20.90
2022-08-21T18:43:42.008Z,20.80
2022-08-21T18:47:54.641Z,20.80
2022-08-21T18:52:03.327Z,20.60
2022-08-21T18:56:15.501Z,20.50
2022-08-21T19:00:27.505Z,20.40
2022-08-21T19:04:44.692Z,20.30
2022-08-21T19:08:50.004Z,20.20
2022-08-21T19:12:59.714Z,20.10
2022-08-21T19:17:14.840Z,19.90
2022-08-21T19:21:18.877Z,19.90
2022-08-21T19:29:47.189Z,19.90
2022-08-21T19:33:59.705Z,19.70
2022-08-21T19:38:06.477Z,19.80
2022-08-21T19:42:16.277Z,20.00
2022-08-21T19:46:25.372Z,20.00
2022-08-21T19:50:30.651Z,20.00
2022-08-21T19:54:34.946Z,20.00
2022-08-21T19:58:41.051Z,19.90
2022-08-21T20:02:48.190Z,19.90
2022-08-21T20:06:53.388Z,19.90
2022-08-21T20:10:59.795Z,20.00
2022-08-21T20:15:09.008Z,19.90
2022-08-21T20:19:13.574Z,19.90
2022-08-21T20:23:19.585Z,20.10
2022-08-21T20:27:36.392Z,20.10
2022-08-21T20:31:44.002Z,20.10
2022-08-21T20:35:50.175Z,20.10
2022-08-21T20:39:55.850Z,20.30
2022-08-21T20:44:01.664Z,20.40
2022-08-21T20:48:13.513Z,20.40
2022-08-21T20:56:49.537Z,20.10
2022-08-21T21:00:54.928Z,20.20
2022-08-21T21:05:06.019Z,20.20
2022-08-21T21:09:14.668Z,20.00
2022-08-21T21:13:24.403Z,19.90
2022-08-21T21:17:33.340Z,19.80
2022-08-21T21:21:41.714Z,19.70
2022-08-21T21:26:01.986Z,19.70
2022-08-21T21:30:14.384Z,19.70
2022-08-21T21:34:17.975Z,19.50
2022-08-21T21:38:27.067Z,19.40
2022-08-21T21:42:41.616Z,19.30
2022-08-21T21:46:55.472Z,19.30
2022-08-21T21:51:03.621Z,19.30
2022-08-21T21:55:33.737Z,19.20
2022-08-21T21:59:48.755Z,19.20
2022-08-21T22:08:39.368Z,19.20
2022-08-21T22:12:53.796Z,19.20
2022-08-21T22:17:09.525Z,19.20
2022-08-21T22:21:22.440Z,19.30
2022-08-21T22:25:30.596Z,19.20
2022-08-21T22:29:48.274Z,19.10
2022-08-21T22:34:05.938Z,19.30
2022-08-21T22:38:29.308Z,19.40
2022-08-21T22:42:34.235Z,19.50
2022-08-21T22:46:40.958Z,19.60
2022-08-21T22:50:44.525Z,19.50
2022-08-21T22:54:53.089Z,19.50
2022-08-21T22:58:59.533Z,19.50
2022-08-21T23:03:03.621Z,19.40
2022-08-21T23:07:06.991Z,19.60
2022-08-21T23:11:17.968Z,19.50
2022-08-21T23:15:22.246Z,19.40
2022-08-21T23:19:38.447Z,19.20
2022-08-21T23:24:01.588Z,19.20
2022-08-21T23:28:14.170Z,19.10
2022-08-21T23:32:57.293Z,19.10
2022-08-21T23:37:48.846Z,19.30
2022-08-21T23:42:00.066Z,19.30
2022-08-21T23:46:19.106Z,19.40
2022-08-21T23:50:46.799Z,19.20
2022-08-21T23:55:12.042Z,19.00
2022-08-21T23:59:31.954Z,19.10
